sensor_id;sensor_type;location;lat;lon;timestamp;temperature;humidity
53748;DHT22;39655;53.210;5.768;2022-07-23T00:01:38;15.10;85.40
53748;DHT22;39655;53.210;5.768;2022-07-23T00:04:14;15.10;85.70
53748;DHT22;39655;53.210;5.768;2022-07-23T00:06:40;15.00;85.60
53748;DHT22;39655;53.210;5.768;2022-07-23T00:09:06;14.90;85.60
53748;DHT22;39655;53.210;5.768;2022-07-23T00:11:40;14.90;85.80
53748;DHT22;39655;53.210;5.768;2022-07-23T00:14:21;14.80;86.00
53748;DHT22;39655;53.210;5.768;2022-07-23T00:16:59;14.70;86.20
53748;DHT22;39655;53.210;5.768;2022-07-23T00:19:51;14.70;86.50
53748;DHT22;39655;53.210;5.768;2022-07-23T00:22:46;14.60;86.40
53748;DHT22;39655;53.210;5.768;2022-07-23T00:25:15;14.60;86.40
53748;DHT22;39655;53.210;5.768;2022-07-23T00:27:47;14.50;86.40
53748;DHT22;39655;53.210;5.768;2022-07-23T00:30:22;14.50;86.40
53748;DHT22;39655;53.210;5.768;2022-07-23T00:32:53;14.40;86.40
53748;DHT22;39655;53.210;5.768;2022-07-23T00:35:34;14.40;86.40
53748;DHT22;39655;53.210;5.768;2022-07-23T00:38:03;14.40;86.60
53748;DHT22;39655;53.210;5.768;2022-07-23T00:40:30;14.30;86.70
53748;DHT22;39655;53.210;5.768;2022-07-23T00:42:58;14.30;86.70
53748;DHT22;39655;53.210;5.768;2022-07-23T00:45:24;14.20;86.80
53748;DHT22;39655;53.210;5.768;2022-07-23T00:47:53;14.20;86.80
53748;DHT22;39655;53.210;5.768;2022-07-23T00:50:19;14.20;86.80
53748;DHT22;39655;53.210;5.768;2022-07-23T00:52:45;14.20;86.80
53748;DHT22;39655;53.210;5.768;2022-07-23T00:55:14;14.10;86.80
53748;DHT22;39655;53.210;5.768;2022-07-23T00:57:43;14.10;86.90
53748;DHT22;39655;53.210;5.768;2022-07-23T01:00:12;14.10;87.00
53748;DHT22;39655;53.210;5.768;2022-07-23T01:02:38;14.00;87.10
53748;DHT22;39655;53.210;5.768;2022-07-23T01:05:10;14.00;87.10
53748;DHT22;39655;53.210;5.768;2022-07-23T01:07:37;14.00;87.20
53748;DHT22;39655;53.210;5.768;2022-07-23T01:10:06;14.00;87.30
53748;DHT22;39655;53.210;5.768;2022-07-23T01:12:52;13.90;87.30
53748;DHT22;39655;53.210;5.768;2022-07-23T01:15:18;13.90;87.40
53748;DHT22;39655;53.210;5.768;2022-07-23T01:17:47;13.90;87.50
53748;DHT22;39655;53.210;5.768;2022-07-23T01:20:13;13.90;87.60
53748;DHT22;39655;53.210;5.768;2022-07-23T01:22:39;13.80;87.60
53748;DHT22;39655;53.210;5.768;2022-07-23T01:25:07;13.90;87.60
53748;DHT22;39655;53.210;5.768;2022-07-23T01:27:33;13.80;87.60
53748;DHT22;39655;53.210;5.768;2022-07-23T01:30:00;13.80;87.60
53748;DHT22;39655;53.210;5.768;2022-07-23T01:32:33;13.90;87.70
53748;DHT22;39655;53.210;5.768;2022-07-23T01:35:04;13.90;87.70
53748;DHT22;39655;53.210;5.768;2022-07-23T01:37:30;13.90;87.70
53748;DHT22;39655;53.210;5.768;2022-07-23T01:40:03;13.90;87.80
53748;DHT22;39655;53.210;5.768;2022-07-23T01:42:29;14.00;87.90
53748;DHT22;39655;53.210;5.768;2022-07-23T01:44:58;14.00;87.90
53748;DHT22;39655;53.210;5.768;2022-07-23T01:47:29;14.10;88.10
53748;DHT22;39655;53.210;5.768;2022-07-23T01:49:57;14.10;88.10
53748;DHT22;39655;53.210;5.768;2022-07-23T01:52:22;14.10;88.00
53748;DHT22;39655;53.210;5.768;2022-07-23T01:54:48;14.10;88.10
53748;DHT22;39655;53.210;5.768;2022-07-23T01:57:17;14.10;88.20
53748;DHT22;39655;53.210;5.768;2022-07-23T01:59:45;14.10;88.00
53748;DHT22;39655;53.210;5.768;2022-07-23T02:02:15;14.10;87.80
53748;DHT22;39655;53.210;5.768;2022-07-23T02:04:42;14.10;87.80
53748;DHT22;39655;53.210;5.768;2022-07-23T02:07:08;14.10;87.80
53748;DHT22;39655;53.210;5.768;2022-07-23T02:09:47;14.10;87.80
53748;DHT22;39655;53.210;5.768;2022-07-23T02:12:12;14.10;87.90
53748;DHT22;39655;53.210;5.768;2022-07-23T02:14:41;14.00;87.90
53748;DHT22;39655;53.210;5.768;2022-07-23T02:17:07;14.00;88.10
53748;DHT22;39655;53.210;5.768;2022-07-23T02:19:32;13.90;88.10
53748;DHT22;39655;53.210;5.768;2022-07-23T02:22:01;13.90;88.20
53748;DHT22;39655;53.210;5.768;2022-07-23T02:24:31;13.80;88.30
53748;DHT22;39655;53.210;5.768;2022-07-23T02:27:01;13.80;88.40
53748;DHT22;39655;53.210;5.768;2022-07-23T02:29:27;13.80;88.40
53748;DHT22;39655;53.210;5.768;2022-07-23T02:31:53;13.70;88.40
53748;DHT22;39655;53.210;5.768;2022-07-23T02:34:22;13.70;88.40
53748;DHT22;39655;53.210;5.768;2022-07-23T02:36:56;13.70;88.50
53748;DHT22;39655;53.210;5.768;2022-07-23T02:39:22;13.60;88.70
53748;DHT22;39655;53.210;5.768;2022-07-23T02:41:48;13.60;88.60
53748;DHT22;39655;53.210;5.768;2022-07-23T02:44:14;13.60;88.70
53748;DHT22;39655;53.210;5.768;2022-07-23T02:46:42;13.60;88.70
53748;DHT22;39655;53.210;5.768;2022-07-23T02:49:10;13.50;88.60
53748;DHT22;39655;53.210;5.768;2022-07-23T02:51:36;13.50;88.60
53748;DHT22;39655;53.210;5.768;2022-07-23T02:54:01;13.50;88.50
53748;DHT22;39655;53.210;5.768;2022-07-23T02:56:27;13.40;88.40
53748;DHT22;39655;53.210;5.768;2022-07-23T02:58:53;13.40;88.30
53748;DHT22;39655;53.210;5.768;2022-07-23T03:01:24;13.40;88.30
53748;DHT22;39655;53.210;5.768;2022-07-23T03:03:50;13.40;88.30
53748;DHT22;39655;53.210;5.768;2022-07-23T03:06:16;13.40;88.30
53748;DHT22;39655;53.210;5.768;2022-07-23T03:08:42;13.40;88.40
53748;DHT22;39655;53.210;5.768;2022-07-23T03:11:08;13.40;88.40
53748;DHT22;39655;53.210;5.768;2022-07-23T03:13:37;13.30;88.50
53748;DHT22;39655;53.210;5.768;2022-07-23T03:16:03;13.40;88.50
53748;DHT22;39655;53.210;5.768;2022-07-23T03:18:29;13.30;88.50
53748;DHT22;39655;53.210;5.768;2022-07-23T03:20:55;13.30;88.60
53748;DHT22;39655;53.210;5.768;2022-07-23T03:23:23;13.30;88.60
53748;DHT22;39655;53.210;5.768;2022-07-23T03:25:49;13.20;88.50
53748;DHT22;39655;53.210;5.768;2022-07-23T03:28:16;13.20;88.50
53748;DHT22;39655;53.210;5.768;2022-07-23T03:30:42;13.20;88.70
53748;DHT22;39655;53.210;5.768;2022-07-23T03:33:08;13.10;88.80
53748;DHT22;39655;53.210;5.768;2022-07-23T03:35:34;13.20;89.00
53748;DHT22;39655;53.210;5.768;2022-07-23T03:38:00;13.10;89.00
53748;DHT22;39655;53.210;5.768;2022-07-23T03:40:25;13.10;89.00
53748;DHT22;39655;53.210;5.768;2022-07-23T03:42:51;13.10;89.00
53748;DHT22;39655;53.210;5.768;2022-07-23T03:45:17;13.10;88.90
53748;DHT22;39655;53.210;5.768;2022-07-23T03:47:43;13.10;88.90
53748;DHT22;39655;53.210;5.768;2022-07-23T03:50:10;13.10;89.00
53748;DHT22;39655;53.210;5.768;2022-07-23T03:52:35;13.00;89.00
53748;DHT22;39655;53.210;5.768;2022-07-23T03:55:02;13.00;89.00
53748;DHT22;39655;53.210;5.768;2022-07-23T03:57:28;13.00;89.20
53748;DHT22;39655;53.210;5.768;2022-07-23T03:59:54;13.00;89.40
53748;DHT22;39655;53.210;5.768;2022-07-23T04:02:20;13.10;89.70
53748;DHT22;39655;53.210;5.768;2022-07-23T04:04:46;13.00;89.90
53748;DHT22;39655;53.210;5.768;2022-07-23T04:07:12;13.10;90.00
53748;DHT22;39655;53.210;5.768;2022-07-23T04:09:38;13.10;90.00
53748;DHT22;39655;53.210;5.768;2022-07-23T04:12:06;13.10;89.90
53748;DHT22;39655;53.210;5.768;2022-07-23T04:14:32;13.10;89.70
53748;DHT22;39655;53.210;5.768;2022-07-23T04:16:59;13.10;89.70
53748;DHT22;39655;53.210;5.768;2022-07-23T04:19:25;13.10;89.80
53748;DHT22;39655;53.210;5.768;2022-07-23T04:21:50;13.10;90.10
53748;DHT22;39655;53.210;5.768;2022-07-23T04:24:17;13.10;90.00
53748;DHT22;39655;53.210;5.768;2022-07-23T04:26:43;13.10;90.10
53748;DHT22;39655;53.210;5.768;2022-07-23T04:29:12;13.10;90.00
53748;DHT22;39655;53.210;5.768;2022-07-23T04:31:37;13.10;90.00
53748;DHT22;39655;53.210;5.768;2022-07-23T04:34:03;13.10;90.00
53748;DHT22;39655;53.210;5.768;2022-07-23T04:36:29;13.10;90.00
53748;DHT22;39655;53.210;5.768;2022-07-23T04:38:57;13.10;90.00
53748;DHT22;39655;53.210;5.768;2022-07-23T04:41:23;13.10;90.00
53748;DHT22;39655;53.210;5.768;2022-07-23T04:43:49;13.10;89.90
53748;DHT22;39655;53.210;5.768;2022-07-23T04:46:18;13.10;89.90
53748;DHT22;39655;53.210;5.768;2022-07-23T04:48:43;13.20;89.80
53748;DHT22;39655;53.210;5.768;2022-07-23T04:51:12;13.20;89.70
53748;DHT22;39655;53.210;5.768;2022-07-23T04:53:38;13.20;89.60
53748;DHT22;39655;53.210;5.768;2022-07-23T04:56:06;13.20;89.60
53748;DHT22;39655;53.210;5.768;2022-07-23T04:58:32;13.20;89.70
53748;DHT22;39655;53.210;5.768;2022-07-23T05:00:58;13.20;89.60
53748;DHT22;39655;53.210;5.768;2022-07-23T05:03:24;13.20;89.70
53748;DHT22;39655;53.210;5.768;2022-07-23T05:05:50;13.20;89.70
53748;DHT22;39655;53.210;5.768;2022-07-23T05:08:19;13.20;89.70
53748;DHT22;39655;53.210;5.768;2022-07-23T05:10:44;13.20;89.70
53748;DHT22;39655;53.210;5.768;2022-07-23T05:13:10;13.30;89.70
53748;DHT22;39655;53.210;5.768;2022-07-23T05:15:36;13.30;89.90
53748;DHT22;39655;53.210;5.768;2022-07-23T05:18:02;13.40;89.70
53748;DHT22;39655;53.210;5.768;2022-07-23T05:20:27;13.30;89.70
53748;DHT22;39655;53.210;5.768;2022-07-23T05:22:53;13.40;89.50
53748;DHT22;39655;53.210;5.768;2022-07-23T05:25:19;13.50;89.50
53748;DHT22;39655;53.210;5.768;2022-07-23T05:27:45;13.50;89.30
53748;DHT22;39655;53.210;5.768;2022-07-23T05:30:13;13.60;89.30
53748;DHT22;39655;53.210;5.768;2022-07-23T05:32:39;13.60;89.00
53748;DHT22;39655;53.210;5.768;2022-07-23T05:35:05;13.70;88.90
53748;DHT22;39655;53.210;5.768;2022-07-23T05:37:31;13.80;88.80
53748;DHT22;39655;53.210;5.768;2022-07-23T05:40:08;13.80;88.70
53748;DHT22;39655;53.210;5.768;2022-07-23T05:42:38;13.90;88.70
53748;DHT22;39655;53.210;5.768;2022-07-23T05:45:06;13.90;88.50
53748;DHT22;39655;53.210;5.768;2022-07-23T05:47:41;14.00;88.20
53748;DHT22;39655;53.210;5.768;2022-07-23T05:50:08;14.10;87.80
53748;DHT22;39655;53.210;5.768;2022-07-23T05:52:33;14.20;87.50
53748;DHT22;39655;53.210;5.768;2022-07-23T05:54:59;14.20;87.30
53748;DHT22;39655;53.210;5.768;2022-07-23T05:57:25;14.30;87.10
53748;DHT22;39655;53.210;5.768;2022-07-23T06:00:00;14.40;86.70
53748;DHT22;39655;53.210;5.768;2022-07-23T06:02:28;14.60;86.70
53748;DHT22;39655;53.210;5.768;2022-07-23T06:04:54;14.60;87.00
53748;DHT22;39655;53.210;5.768;2022-07-23T06:07:20;14.70;87.10
53748;DHT22;39655;53.210;5.768;2022-07-23T06:09:45;14.80;87.00
53748;DHT22;39655;53.210;5.768;2022-07-23T06:12:12;14.80;86.40
53748;DHT22;39655;53.210;5.768;2022-07-23T06:14:38;14.90;86.40
53748;DHT22;39655;53.210;5.768;2022-07-23T06:17:06;15.00;85.70
53748;DHT22;39655;53.210;5.768;2022-07-23T06:19:31;15.10;84.70
53748;DHT22;39655;53.210;5.768;2022-07-23T06:21:57;15.10;85.00
53748;DHT22;39655;53.210;5.768;2022-07-23T06:24:23;15.10;84.40
53748;DHT22;39655;53.210;5.768;2022-07-23T06:26:48;15.30;83.10
53748;DHT22;39655;53.210;5.768;2022-07-23T06:29:14;15.40;83.30
53748;DHT22;39655;53.210;5.768;2022-07-23T06:31:40;15.40;82.30
53748;DHT22;39655;53.210;5.768;2022-07-23T06:34:05;15.50;82.30
53748;DHT22;39655;53.210;5.768;2022-07-23T06:36:31;15.60;81.20
53748;DHT22;39655;53.210;5.768;2022-07-23T06:38:57;15.60;79.70
53748;DHT22;39655;53.210;5.768;2022-07-23T06:41:22;15.70;78.00
53748;DHT22;39655;53.210;5.768;2022-07-23T06:43:48;15.80;78.00
53748;DHT22;39655;53.210;5.768;2022-07-23T06:46:14;16.00;74.60
53748;DHT22;39655;53.210;5.768;2022-07-23T06:48:40;16.10;76.50
53748;DHT22;39655;53.210;5.768;2022-07-23T06:51:06;16.20;76.30
53748;DHT22;39655;53.210;5.768;2022-07-23T06:53:31;16.30;74.30
53748;DHT22;39655;53.210;5.768;2022-07-23T06:55:57;16.40;73.50
53748;DHT22;39655;53.210;5.768;2022-07-23T06:58:23;16.50;72.20
53748;DHT22;39655;53.210;5.768;2022-07-23T07:00:48;16.60;72.40
53748;DHT22;39655;53.210;5.768;2022-07-23T07:03:14;16.60;73.30
53748;DHT22;39655;53.210;5.768;2022-07-23T07:05:39;16.70;72.30
53748;DHT22;39655;53.210;5.768;2022-07-23T07:08:05;16.70;71.60
53748;DHT22;39655;53.210;5.768;2022-07-23T07:10:31;16.70;70.10
53748;DHT22;39655;53.210;5.768;2022-07-23T07:12:57;16.70;69.00
53748;DHT22;39655;53.210;5.768;2022-07-23T07:15:23;16.80;69.30
53748;DHT22;39655;53.210;5.768;2022-07-23T07:17:52;16.80;69.30
53748;DHT22;39655;53.210;5.768;2022-07-23T07:20:17;16.90;68.70
53748;DHT22;39655;53.210;5.768;2022-07-23T07:22:43;16.90;69.00
53748;DHT22;39655;53.210;5.768;2022-07-23T07:25:09;17.00;70.00
53748;DHT22;39655;53.210;5.768;2022-07-23T07:27:34;17.00;70.00
53748;DHT22;39655;53.210;5.768;2022-07-23T07:30:00;17.10;69.60
53748;DHT22;39655;53.210;5.768;2022-07-23T07:32:26;17.10;69.70
53748;DHT22;39655;53.210;5.768;2022-07-23T07:34:51;17.10;71.10
53748;DHT22;39655;53.210;5.768;2022-07-23T07:37:17;17.20;71.30
53748;DHT22;39655;53.210;5.768;2022-07-23T07:39:43;17.20;70.90
53748;DHT22;39655;53.210;5.768;2022-07-23T07:42:08;17.20;71.00
53748;DHT22;39655;53.210;5.768;2022-07-23T07:44:34;17.20;71.40
53748;DHT22;39655;53.210;5.768;2022-07-23T07:47:00;17.10;70.60
53748;DHT22;39655;53.210;5.768;2022-07-23T07:49:25;17.20;70.50
53748;DHT22;39655;53.210;5.768;2022-07-23T07:51:51;17.20;70.90
53748;DHT22;39655;53.210;5.768;2022-07-23T07:54:19;17.30;72.10
53748;DHT22;39655;53.210;5.768;2022-07-23T07:56:45;17.20;71.50
53748;DHT22;39655;53.210;5.768;2022-07-23T07:59:10;17.20;71.70
53748;DHT22;39655;53.210;5.768;2022-07-23T08:01:37;17.20;72.30
53748;DHT22;39655;53.210;5.768;2022-07-23T08:04:02;17.20;72.70
53748;DHT22;39655;53.210;5.768;2022-07-23T08:06:28;17.20;73.60
53748;DHT22;39655;53.210;5.768;2022-07-23T08:08:54;17.20;72.60
53748;DHT22;39655;53.210;5.768;2022-07-23T08:11:19;17.30;73.60
53748;DHT22;39655;53.210;5.768;2022-07-23T08:13:45;17.30;73.80
53748;DHT22;39655;53.210;5.768;2022-07-23T08:16:11;17.30;73.30
53748;DHT22;39655;53.210;5.768;2022-07-23T08:18:37;17.20;73.10
53748;DHT22;39655;53.210;5.768;2022-07-23T08:21:06;17.10;73.60
53748;DHT22;39655;53.210;5.768;2022-07-23T08:23:31;17.10;73.80
53748;DHT22;39655;53.210;5.768;2022-07-23T08:25:57;17.10;74.00
53748;DHT22;39655;53.210;5.768;2022-07-23T08:28:25;17.10;74.00
53748;DHT22;39655;53.210;5.768;2022-07-23T08:30:50;17.20;74.40
53748;DHT22;39655;53.210;5.768;2022-07-23T08:33:17;17.20;74.70
53748;DHT22;39655;53.210;5.768;2022-07-23T08:35:49;17.20;74.90
53748;DHT22;39655;53.210;5.768;2022-07-23T08:38:17;17.30;74.80
53748;DHT22;39655;53.210;5.768;2022-07-23T08:40:48;17.30;75.00
53748;DHT22;39655;53.210;5.768;2022-07-23T08:43:25;17.40;74.70
53748;DHT22;39655;53.210;5.768;2022-07-23T08:45:53;17.50;74.40
53748;DHT22;39655;53.210;5.768;2022-07-23T08:48:24;17.60;74.50
53748;DHT22;39655;53.210;5.768;2022-07-23T08:50:53;17.70;74.20
53748;DHT22;39655;53.210;5.768;2022-07-23T08:53:20;17.70;74.20
53748;DHT22;39655;53.210;5.768;2022-07-23T08:55:48;17.90;72.90
53748;DHT22;39655;53.210;5.768;2022-07-23T08:58:14;18.00;73.70
53748;DHT22;39655;53.210;5.768;2022-07-23T09:00:41;18.10;73.10
53748;DHT22;39655;53.210;5.768;2022-07-23T09:03:06;18.20;73.40
53748;DHT22;39655;53.210;5.768;2022-07-23T09:05:32;18.60;72.80
53748;DHT22;39655;53.210;5.768;2022-07-23T09:08:16;18.50;71.50
53748;DHT22;39655;53.210;5.768;2022-07-23T09:10:47;18.60;72.60
53748;DHT22;39655;53.210;5.768;2022-07-23T09:13:34;18.70;71.40
53748;DHT22;39655;53.210;5.768;2022-07-23T09:16:11;18.60;71.40
53748;DHT22;39655;53.210;5.768;2022-07-23T09:18:42;18.40;71.40
53748;DHT22;39655;53.210;5.768;2022-07-23T09:21:21;18.20;71.70
53748;DHT22;39655;53.210;5.768;2022-07-23T09:23:53;18.10;72.90
53748;DHT22;39655;53.210;5.768;2022-07-23T09:26:54;18.20;72.80
53748;DHT22;39655;53.210;5.768;2022-07-23T09:29:15;18.20;71.60
53748;DHT22;39655;53.210;5.768;2022-07-23T09:34:22;18.80;70.50
53748;DHT22;39655;53.210;5.768;2022-07-23T09:36:50;19.10;67.30
53748;DHT22;39655;53.210;5.768;2022-07-23T09:39:26;19.10;67.20
53748;DHT22;39655;53.210;5.768;2022-07-23T09:41:52;19.00;68.00
53748;DHT22;39655;53.210;5.768;2022-07-23T09:44:19;18.90;67.50
53748;DHT22;39655;53.210;5.768;2022-07-23T09:46:47;18.80;67.50
53748;DHT22;39655;53.210;5.768;2022-07-23T09:49:21;18.80;68.10
53748;DHT22;39655;53.210;5.768;2022-07-23T09:54:22;19.00;65.30
53748;DHT22;39655;53.210;5.768;2022-07-23T09:56:48;19.10;67.30
53748;DHT22;39655;53.210;5.768;2022-07-23T09:59:16;19.30;66.70
53748;DHT22;39655;53.210;5.768;2022-07-23T10:01:44;19.30;65.80
53748;DHT22;39655;53.210;5.768;2022-07-23T10:04:11;19.30;65.80
53748;DHT22;39655;53.210;5.768;2022-07-23T10:06:39;19.50;65.90
53748;DHT22;39655;53.210;5.768;2022-07-23T10:09:05;19.70;64.90
53748;DHT22;39655;53.210;5.768;2022-07-23T10:11:31;19.80;64.00
53748;DHT22;39655;53.210;5.768;2022-07-23T10:13:58;19.80;63.40
53748;DHT22;39655;53.210;5.768;2022-07-23T10:16:25;19.90;64.00
53748;DHT22;39655;53.210;5.768;2022-07-23T10:18:52;19.80;63.30
53748;DHT22;39655;53.210;5.768;2022-07-23T10:21:30;19.60;63.60
53748;DHT22;39655;53.210;5.768;2022-07-23T10:30:31;19.70;64.90
53748;DHT22;39655;53.210;5.768;2022-07-23T10:36:59;19.70;62.40
53748;DHT22;39655;53.210;5.768;2022-07-23T10:39:30;19.60;63.80
53748;DHT22;39655;53.210;5.768;2022-07-23T10:42:16;19.70;63.60
53748;DHT22;39655;53.210;5.768;2022-07-23T10:44:45;19.80;62.20
53748;DHT22;39655;53.210;5.768;2022-07-23T10:47:13;19.60;63.10
53748;DHT22;39655;53.210;5.768;2022-07-23T10:50:26;19.70;62.80
53748;DHT22;39655;53.210;5.768;2022-07-23T10:57:58;20.60;61.10
53748;DHT22;39655;53.210;5.768;2022-07-23T11:00:28;20.60;61.30
53748;DHT22;39655;53.210;5.768;2022-07-23T11:02:56;20.80;59.80
53748;DHT22;39655;53.210;5.768;2022-07-23T11:05:24;21.00;60.10
53748;DHT22;39655;53.210;5.768;2022-07-23T11:10:37;20.70;61.40
53748;DHT22;39655;53.210;5.768;2022-07-23T11:26:47;20.80;62.50
53748;DHT22;39655;53.210;5.768;2022-07-23T11:32:00;20.60;60.70
53748;DHT22;39655;53.210;5.768;2022-07-23T11:34:39;20.60;61.00
53748;DHT22;39655;53.210;5.768;2022-07-23T11:37:07;20.80;61.00
53748;DHT22;39655;53.210;5.768;2022-07-23T11:39:34;20.90;59.10
53748;DHT22;39655;53.210;5.768;2022-07-23T11:42:01;20.70;58.90
53748;DHT22;39655;53.210;5.768;2022-07-23T11:44:34;20.70;60.50
53748;DHT22;39655;53.210;5.768;2022-07-23T11:47:05;20.80;60.40
53748;DHT22;39655;53.210;5.768;2022-07-23T11:49:31;20.90;60.20
53748;DHT22;39655;53.210;5.768;2022-07-23T11:52:14;20.70;60.70
53748;DHT22;39655;53.210;5.768;2022-07-23T11:55:03;20.70;60.80
53748;DHT22;39655;53.210;5.768;2022-07-23T11:57:32;20.90;58.20
53748;DHT22;39655;53.210;5.768;2022-07-23T12:00:07;20.90;58.40
53748;DHT22;39655;53.210;5.768;2022-07-23T12:02:35;20.70;59.50
53748;DHT22;39655;53.210;5.768;2022-07-23T12:05:00;20.50;60.40
53748;DHT22;39655;53.210;5.768;2022-07-23T12:07:36;20.50;60.00
53748;DHT22;39655;53.210;5.768;2022-07-23T12:10:17;20.40;60.60
53748;DHT22;39655;53.210;5.768;2022-07-23T12:15:15;20.50;60.40
53748;DHT22;39655;53.210;5.768;2022-07-23T12:17:44;20.60;60.90
53748;DHT22;39655;53.210;5.768;2022-07-23T12:20:14;20.70;61.00
53748;DHT22;39655;53.210;5.768;2022-07-23T12:22:49;20.70;61.30
53748;DHT22;39655;53.210;5.768;2022-07-23T12:25:20;21.00;60.10
53748;DHT22;39655;53.210;5.768;2022-07-23T12:27:59;21.10;59.20
53748;DHT22;39655;53.210;5.768;2022-07-23T12:30:27;20.80;59.70
53748;DHT22;39655;53.210;5.768;2022-07-23T12:32:56;20.90;59.80
53748;DHT22;39655;53.210;5.768;2022-07-23T12:35:23;21.10;61.00
53748;DHT22;39655;53.210;5.768;2022-07-23T12:38:03;21.60;60.20
53748;DHT22;39655;53.210;5.768;2022-07-23T12:40:35;21.60;59.90
53748;DHT22;39655;53.210;5.768;2022-07-23T12:43:02;21.80;57.70
53748;DHT22;39655;53.210;5.768;2022-07-23T12:45:48;22.00;57.40
53748;DHT22;39655;53.210;5.768;2022-07-23T12:48:27;22.10;58.20
53748;DHT22;39655;53.210;5.768;2022-07-23T12:50:56;22.10;57.70
53748;DHT22;39655;53.210;5.768;2022-07-23T12:53:31;22.30;58.30
53748;DHT22;39655;53.210;5.768;2022-07-23T12:56:06;22.20;57.70
53748;DHT22;39655;53.210;5.768;2022-07-23T12:58:43;22.10;59.10
53748;DHT22;39655;53.210;5.768;2022-07-23T13:01:31;22.40;57.70
53748;DHT22;39655;53.210;5.768;2022-07-23T13:04:20;22.40;56.20
53748;DHT22;39655;53.210;5.768;2022-07-23T13:06:48;22.50;58.20
53748;DHT22;39655;53.210;5.768;2022-07-23T13:09:19;22.40;57.00
53748;DHT22;39655;53.210;5.768;2022-07-23T13:11:46;22.40;57.40
53748;DHT22;39655;53.210;5.768;2022-07-23T13:14:12;22.00;58.20
53748;DHT22;39655;53.210;5.768;2022-07-23T13:16:39;22.20;58.30
53748;DHT22;39655;53.210;5.768;2022-07-23T13:19:05;22.30;57.30
53748;DHT22;39655;53.210;5.768;2022-07-23T13:21:31;22.40;57.00
53748;DHT22;39655;53.210;5.768;2022-07-23T13:23:57;22.20;58.10
53748;DHT22;39655;53.210;5.768;2022-07-23T13:26:23;22.10;58.80
53748;DHT22;39655;53.210;5.768;2022-07-23T13:28:49;22.00;58.40
53748;DHT22;39655;53.210;5.768;2022-07-23T13:31:16;22.30;59.70
53748;DHT22;39655;53.210;5.768;2022-07-23T13:33:42;22.80;56.70
53748;DHT22;39655;53.210;5.768;2022-07-23T13:36:08;23.10;55.50
53748;DHT22;39655;53.210;5.768;2022-07-23T13:38:34;23.30;54.70
53748;DHT22;39655;53.210;5.768;2022-07-23T13:41:00;23.40;53.70
53748;DHT22;39655;53.210;5.768;2022-07-23T13:43:26;23.50;54.90
53748;DHT22;39655;53.210;5.768;2022-07-23T13:45:52;23.80;53.80
53748;DHT22;39655;53.210;5.768;2022-07-23T13:48:19;24.00;53.10
53748;DHT22;39655;53.210;5.768;2022-07-23T13:50:46;24.00;52.70
53748;DHT22;39655;53.210;5.768;2022-07-23T13:53:16;24.10;53.70
53748;DHT22;39655;53.210;5.768;2022-07-23T13:55:43;24.20;51.90
53748;DHT22;39655;53.210;5.768;2022-07-23T13:58:10;24.20;52.70
53748;DHT22;39655;53.210;5.768;2022-07-23T14:00:40;24.40;53.50
53748;DHT22;39655;53.210;5.768;2022-07-23T14:03:07;24.80;52.30
53748;DHT22;39655;53.210;5.768;2022-07-23T14:05:33;25.10;51.10
53748;DHT22;39655;53.210;5.768;2022-07-23T14:07:59;25.20;49.80
53748;DHT22;39655;53.210;5.768;2022-07-23T14:10:25;25.10;49.40
53748;DHT22;39655;53.210;5.768;2022-07-23T14:12:52;25.10;50.50
53748;DHT22;39655;53.210;5.768;2022-07-23T14:15:18;25.40;49.60
53748;DHT22;39655;53.210;5.768;2022-07-23T14:17:45;25.40;49.60
53748;DHT22;39655;53.210;5.768;2022-07-23T14:20:12;25.10;49.50
53748;DHT22;39655;53.210;5.768;2022-07-23T14:22:38;25.00;49.40
53748;DHT22;39655;53.210;5.768;2022-07-23T14:25:05;25.00;50.20
53748;DHT22;39655;53.210;5.768;2022-07-23T14:27:31;25.30;49.10
53748;DHT22;39655;53.210;5.768;2022-07-23T14:29:57;25.50;49.90
53748;DHT22;39655;53.210;5.768;2022-07-23T14:32:23;25.80;49.60
53748;DHT22;39655;53.210;5.768;2022-07-23T14:34:49;25.70;47.70
53748;DHT22;39655;53.210;5.768;2022-07-23T14:37:15;25.40;48.70
53748;DHT22;39655;53.210;5.768;2022-07-23T14:39:42;25.30;49.10
53748;DHT22;39655;53.210;5.768;2022-07-23T14:42:09;25.50;48.40
53748;DHT22;39655;53.210;5.768;2022-07-23T14:44:35;25.80;49.00
53748;DHT22;39655;53.210;5.768;2022-07-23T14:47:01;26.00;47.10
53748;DHT22;39655;53.210;5.768;2022-07-23T14:49:28;26.10;48.20
53748;DHT22;39655;53.210;5.768;2022-07-23T14:51:54;26.00;49.60
53748;DHT22;39655;53.210;5.768;2022-07-23T14:54:19;25.80;48.90
53748;DHT22;39655;53.210;5.768;2022-07-23T14:56:46;25.60;48.10
53748;DHT22;39655;53.210;5.768;2022-07-23T14:59:12;25.70;49.00
53748;DHT22;39655;53.210;5.768;2022-07-23T15:01:38;25.80;48.30
53748;DHT22;39655;53.210;5.768;2022-07-23T15:04:05;26.10;47.70
53748;DHT22;39655;53.210;5.768;2022-07-23T15:06:31;26.40;46.30
53748;DHT22;39655;53.210;5.768;2022-07-23T15:08:57;26.30;47.00
53748;DHT22;39655;53.210;5.768;2022-07-23T15:11:23;26.60;46.10
53748;DHT22;39655;53.210;5.768;2022-07-23T15:13:48;26.20;47.70
53748;DHT22;39655;53.210;5.768;2022-07-23T15:16:14;26.40;48.10
53748;DHT22;39655;53.210;5.768;2022-07-23T15:18:40;26.20;48.30
53748;DHT22;39655;53.210;5.768;2022-07-23T15:21:06;26.40;48.10
53748;DHT22;39655;53.210;5.768;2022-07-23T15:23:32;26.70;47.40
53748;DHT22;39655;53.210;5.768;2022-07-23T15:25:58;27.00;44.50
53748;DHT22;39655;53.210;5.768;2022-07-23T15:28:24;27.10;44.80
53748;DHT22;39655;53.210;5.768;2022-07-23T15:30:50;26.70;46.50
53748;DHT22;39655;53.210;5.768;2022-07-23T15:33:17;26.60;46.50
53748;DHT22;39655;53.210;5.768;2022-07-23T15:35:42;26.80;46.20
53748;DHT22;39655;53.210;5.768;2022-07-23T15:38:08;27.10;46.30
53748;DHT22;39655;53.210;5.768;2022-07-23T15:40:34;27.30;45.00
53748;DHT22;39655;53.210;5.768;2022-07-23T15:43:00;27.40;43.40
53748;DHT22;39655;53.210;5.768;2022-07-23T15:45:26;27.20;43.70
53748;DHT22;39655;53.210;5.768;2022-07-23T15:47:51;27.30;44.00
53748;DHT22;39655;53.210;5.768;2022-07-23T15:50:17;27.80;43.70
53748;DHT22;39655;53.210;5.768;2022-07-23T15:52:43;27.60;43.50
53748;DHT22;39655;53.210;5.768;2022-07-23T15:55:09;28.00;43.60
53748;DHT22;39655;53.210;5.768;2022-07-23T15:57:35;28.00;42.90
53748;DHT22;39655;53.210;5.768;2022-07-23T16:00:01;28.10;43.10
53748;DHT22;39655;53.210;5.768;2022-07-23T16:02:27;28.10;42.60
53748;DHT22;39655;53.210;5.768;2022-07-23T16:04:52;27.90;41.70
53748;DHT22;39655;53.210;5.768;2022-07-23T16:07:20;28.00;42.20
53748;DHT22;39655;53.210;5.768;2022-07-23T16:09:46;28.40;42.30
53748;DHT22;39655;53.210;5.768;2022-07-23T16:12:12;28.70;41.60
53748;DHT22;39655;53.210;5.768;2022-07-23T16:14:44;28.80;40.80
53748;DHT22;39655;53.210;5.768;2022-07-23T16:17:10;29.00;42.10
53748;DHT22;39655;53.210;5.768;2022-07-23T16:19:36;29.20;40.60